CMA CGM Musca — 2CAC8 — position and weather

sailwx.info

Track history (hours):
 
Tides and Currents Weather Stations Pressure Air Temp Water Temp Dewpoint Dewpoint Depression Visibility Wind Speed Wind Dir Waves Ship Positions

CMA CGM Musca

Last reported at 2015-Aug-21 21:14 UTC. Time now 2015-Sep-05 01:18 UTC.
Position N 31°27' E 032°19'.
Warning: this ship's position is 14 days out of date.

Length 347 m; draft 13.7 m.

Type: Ship (hazmat cat A). MMSI: 235070914.

Date/timePositionNaut miles runAvg speedWind from/ knotsBaromVisibWave heightAir tempDewpointWater temp
2015-Aug-21 21:14N 31°27' E 032°19'0 0.3
2015-Aug-21 20:32N 31°27' E 032°19'20 9.7
2015-Aug-21 18:28N 31°41' E 032°02'1112.5
2015-Aug-21 17:34N 31°47' E 031°51'24013.3
2015-Aug-20 23:32N 32°55' E 027°18'2613.4
2015-Aug-20 21:33N 33°02' E 026°47'41114.1
2015-Aug-19 16:24N 34°50' E 018°50'17813.9
2015-Aug-19 03:32N 35°36' E 015°19'1313.6
2015-Aug-19 02:33N 35°40' E 015°03'1313.5
2015-Aug-19 01:33N 35°43' E 014°47'1210.2
2015-Aug-19 00:21N 35°43' E 014°31'1 1.0
2015-Aug-18 23:33N 35°43' E 014°32'3 3.2
2015-Aug-18 22:33N 35°44' E 014°36'6 4.7
2015-Aug-18 21:16N 35°49' E 014°33'0 0.0
2015-Aug-18 20:31N 35°49' E 014°33'0 0.0
2015-Aug-18 19:34N 35°49' E 014°33'0 0.0
2015-Aug-18 18:33N 35°49' E 014°33'0 0.0
2015-Aug-18 17:30N 35°49' E 014°33'0 0.0
2015-Aug-18 16:32N 35°49' E 014°33'0 0.0
2015-Aug-18 15:32N 35°49' E 014°33'0 0.0
2015-Aug-18 14:31N 35°49' E 014°33'0 0.0
2015-Aug-18 13:28N 35°49' E 014°33'0 0.0
2015-Aug-18 12:34N 35°49' E 014°33'0 0.0
2015-Aug-18 11:33N 35°49' E 014°33'0 0.0
2015-Aug-18 10:33N 35°49' E 014°33'0 0.0
2015-Aug-18 09:29N 35°49' E 014°33'0 0.0
2015-Aug-18 08:32N 35°49' E 014°33'0 0.0
2015-Aug-18 07:22N 35°49' E 014°33'0 0.0
2015-Aug-18 03:05N 35°49' E 014°33'0 0.0
2015-Aug-18 02:29N 35°49' E 014°33'0 0.0
2015-Aug-18 01:26N 35°49' E 014°33'0 0.3
2015-Aug-18 00:29N 35°49' E 014°33'8 6.8
2015-Aug-17 23:20N 35°46' E 014°25'1519.6
2015-Aug-17 22:33N 35°53' E 014°09'2521.4
2015-Aug-17 21:25N 36°06' E 013°43'2021.4
2015-Aug-17 20:28N 36°17' E 013°22'2021.9
2015-Aug-17 19:33N 36°28' E 013°01'2221.9
2015-Aug-17 18:33N 36°40' E 012°39'2222.1
2015-Aug-17 17:33N 36°52' E 012°15'36721.3
2015-Aug-17 00:19N 37°15' E 004°36'13621.8
2015-Aug-16 18:06N 36°52' E 001°49'1222.5
2015-Aug-16 17:33N 36°50' E 001°34'4422.2
2015-Aug-16 15:33N 36°41' E 000°39'2222.1
2015-Aug-16 14:32N 36°37' E 000°12'48819.2
2015-Aug-15 13:07N 37°57' W 009°53'1321.9
2015-Aug-15 12:31N 38°10' W 009°57'2122.1
2015-Aug-15 11:33N 38°30' W 010°04'2222.1
2015-Aug-15 10:33N 38°52' W 010°07'2121.6
2015-Aug-15 09:33N 39°14' W 010°08'74418.6
2015-Aug-13 17:33N 49°52' W 001°09'1817.9
2015-Aug-13 16:33N 49°44' W 000°44'1717.3
2015-Aug-13 15:33N 49°35' W 000°21'1515.3
2015-Aug-13 14:33N 49°30' E 000°01'6 5.8
2015-Aug-13 13:33N 49°27' E 000°09'1 0.5
2015-Aug-13 12:31N 49°27' E 000°10'0 0.0
2015-Aug-13 11:31N 49°27' E 000°10'0 0.0
2015-Aug-13 10:33N 49°27' E 000°10'0 0.0
2015-Aug-13 09:33N 49°27' E 000°10'0 0.0
2015-Aug-13 08:32N 49°27' E 000°10'0 0.0
2015-Aug-13 07:32N 49°27' E 000°10'0 0.0
2015-Aug-13 06:32N 49°27' E 000°10'0 0.0
2015-Aug-13 05:31N 49°27' E 000°10'0 0.0
2015-Aug-13 04:31N 49°27' E 000°10'0 0.0
2015-Aug-13 03:33N 49°27' E 000°10'0 0.0
2015-Aug-13 02:33N 49°27' E 000°10'0 0.0
2015-Aug-13 01:32N 49°27' E 000°10'0 0.0
2015-Aug-13 00:32N 49°27' E 000°10'0 0.0
2015-Aug-12 23:28N 49°27' E 000°10'0 0.0
2015-Aug-12 22:31N 49°27' E 000°10'0 0.0
2015-Aug-12 21:28N 49°27' E 000°10'0 0.0
2015-Aug-12 20:33N 49°27' E 000°10'0 0.0
2015-Aug-12 19:30N 49°27' E 000°10'0 0.0
2015-Aug-12 18:32N 49°27' E 000°10'0 0.0
2015-Aug-12 17:32N 49°27' E 000°10'0 0.0
2015-Aug-12 16:31N 49°27' E 000°10'0 0.0
2015-Aug-12 15:31N 49°27' E 000°10'0 0.0
2015-Aug-12 14:31N 49°27' E 000°10'0 0.0
2015-Aug-12 13:30N 49°27' E 000°10'0 0.0
2015-Aug-12 12:33N 49°27' E 000°10'0 0.1
2015-Aug-12 11:33N 49°27' E 000°10'1010.2
2015-Aug-12 10:33N 49°31' W 000°04'9 8.7
2015-Aug-12 09:34N 49°38' W 000°13'1616.0
2015-Aug-12 08:33N 49°54' W 000°12'2316.7
2015-Aug-12 07:09N 50°17' W 000°14'1118.4
2015-Aug-12 06:33N 50°26' W 000°03'1817.7
2015-Aug-12 05:34N 50°32' E 000°23'1413.7
2015-Aug-12 04:33N 50°39' E 000°42'1313.3
2015-Aug-12 03:33N 50°47' E 000°59'1413.4
2015-Aug-12 02:32N 50°55' E 001°17'1212.5
2015-Aug-12 01:33N 51°03' E 001°30'1111.0
2015-Aug-12 00:33N 51°11' E 001°43'1010.4
2015-Aug-11 23:33N 51°19' E 001°53'1010.1
2015-Aug-11 22:32N 51°29' E 001°60'1212.1
2015-Aug-11 21:33N 51°21' E 002°15'  
Track history (hours):
 
Tides and Currents Weather Stations Pressure Air Temp Water Temp Dewpoint Dewpoint Depression Visibility Wind Speed Wind Dir Waves Ship Positions

CMA CGM Musca

Last reported at 2015-Aug-21 21:14 UTC. Time now 2015-Sep-05 01:18 UTC.
Position N 31°27' E 032°19'.
Warning: this ship's position is 14 days out of date.

Length 347 m; draft 13.7 m.

Type: Ship (hazmat cat A). MMSI: 235070914.

Date/timePositionNaut miles runAvg speedWind from/ knotsBaromVisibWave heightAir tempDewpointWater temp
2015-Aug-21 21:14N 31°27' E 032°19'0 0.3
2015-Aug-21 20:32N 31°27' E 032°19'20 9.7
2015-Aug-21 18:28N 31°41' E 032°02'1112.5
2015-Aug-21 17:34N 31°47' E 031°51'24013.3
2015-Aug-20 23:32N 32°55' E 027°18'2613.4
2015-Aug-20 21:33N 33°02' E 026°47'41114.1
2015-Aug-19 16:24N 34°50' E 018°50'17813.9
2015-Aug-19 03:32N 35°36' E 015°19'1313.6
2015-Aug-19 02:33N 35°40' E 015°03'1313.5
2015-Aug-19 01:33N 35°43' E 014°47'1210.2
2015-Aug-19 00:21N 35°43' E 014°31'1 1.0
2015-Aug-18 23:33N 35°43' E 014°32'3 3.2
2015-Aug-18 22:33N 35°44' E 014°36'6 4.7
2015-Aug-18 21:16N 35°49' E 014°33'0 0.0
2015-Aug-18 20:31N 35°49' E 014°33'0 0.0
2015-Aug-18 19:34N 35°49' E 014°33'0 0.0
2015-Aug-18 18:33N 35°49' E 014°33'0 0.0
2015-Aug-18 17:30N 35°49' E 014°33'0 0.0
2015-Aug-18 16:32N 35°49' E 014°33'0 0.0
2015-Aug-18 15:32N 35°49' E 014°33'0 0.0
2015-Aug-18 14:31N 35°49' E 014°33'0 0.0
2015-Aug-18 13:28N 35°49' E 014°33'0 0.0
2015-Aug-18 12:34N 35°49' E 014°33'0 0.0
2015-Aug-18 11:33N 35°49' E 014°33'0 0.0
2015-Aug-18 10:33N 35°49' E 014°33'0 0.0
2015-Aug-18 09:29N 35°49' E 014°33'0 0.0
2015-Aug-18 08:32N 35°49' E 014°33'0 0.0
2015-Aug-18 07:22N 35°49' E 014°33'0 0.0
2015-Aug-18 03:05N 35°49' E 014°33'0 0.0
2015-Aug-18 02:29N 35°49' E 014°33'0 0.0
2015-Aug-18 01:26N 35°49' E 014°33'0 0.3
2015-Aug-18 00:29N 35°49' E 014°33'8 6.8
2015-Aug-17 23:20N 35°46' E 014°25'1519.6
2015-Aug-17 22:33N 35°53' E 014°09'2521.4
2015-Aug-17 21:25N 36°06' E 013°43'2021.4
2015-Aug-17 20:28N 36°17' E 013°22'2021.9
2015-Aug-17 19:33N 36°28' E 013°01'2221.9
2015-Aug-17 18:33N 36°40' E 012°39'2222.1
2015-Aug-17 17:33N 36°52' E 012°15'36721.3
2015-Aug-17 00:19N 37°15' E 004°36'13621.8
2015-Aug-16 18:06N 36°52' E 001°49'1222.5
2015-Aug-16 17:33N 36°50' E 001°34'4422.2
2015-Aug-16 15:33N 36°41' E 000°39'2222.1
2015-Aug-16 14:32N 36°37' E 000°12'48819.2
2015-Aug-15 13:07N 37°57' W 009°53'1321.9
2015-Aug-15 12:31N 38°10' W 009°57'2122.1
2015-Aug-15 11:33N 38°30' W 010°04'2222.1
2015-Aug-15 10:33N 38°52' W 010°07'2121.6
2015-Aug-15 09:33N 39°14' W 010°08'74418.6
2015-Aug-13 17:33N 49°52' W 001°09'1817.9
2015-Aug-13 16:33N 49°44' W 000°44'1717.3
2015-Aug-13 15:33N 49°35' W 000°21'1515.3
2015-Aug-13 14:33N 49°30' E 000°01'6 5.8
2015-Aug-13 13:33N 49°27' E 000°09'1 0.5
2015-Aug-13 12:31N 49°27' E 000°10'0 0.0
2015-Aug-13 11:31N 49°27' E 000°10'0 0.0
2015-Aug-13 10:33N 49°27' E 000°10'0 0.0
2015-Aug-13 09:33N 49°27' E 000°10'0 0.0
2015-Aug-13 08:32N 49°27' E 000°10'0 0.0
2015-Aug-13 07:32N 49°27' E 000°10'0 0.0
2015-Aug-13 06:32N 49°27' E 000°10'0 0.0
2015-Aug-13 05:31N 49°27' E 000°10'0 0.0
2015-Aug-13 04:31N 49°27' E 000°10'0 0.0
2015-Aug-13 03:33N 49°27' E 000°10'0 0.0
2015-Aug-13 02:33N 49°27' E 000°10'0 0.0
2015-Aug-13 01:32N 49°27' E 000°10'0 0.0
2015-Aug-13 00:32N 49°27' E 000°10'0 0.0
2015-Aug-12 23:28N 49°27' E 000°10'0 0.0
2015-Aug-12 22:31N 49°27' E 000°10'0 0.0
2015-Aug-12 21:28N 49°27' E 000°10'0 0.0
2015-Aug-12 20:33N 49°27' E 000°10'0 0.0
2015-Aug-12 19:30N 49°27' E 000°10'0 0.0
2015-Aug-12 18:32N 49°27' E 000°10'0 0.0
2015-Aug-12 17:32N 49°27' E 000°10'0 0.0
2015-Aug-12 16:31N 49°27' E 000°10'0 0.0
2015-Aug-12 15:31N 49°27' E 000°10'0 0.0
2015-Aug-12 14:31N 49°27' E 000°10'0 0.0
2015-Aug-12 13:30N 49°27' E 000°10'0 0.0
2015-Aug-12 12:33N 49°27' E 000°10'0 0.1
2015-Aug-12 11:33N 49°27' E 000°10'1010.2
2015-Aug-12 10:33N 49°31' W 000°04'9 8.7
2015-Aug-12 09:34N 49°38' W 000°13'1616.0
2015-Aug-12 08:33N 49°54' W 000°12'2316.7
2015-Aug-12 07:09N 50°17' W 000°14'1118.4
2015-Aug-12 06:33N 50°26' W 000°03'1817.7
2015-Aug-12 05:34N 50°32' E 000°23'1413.7
2015-Aug-12 04:33N 50°39' E 000°42'1313.3
2015-Aug-12 03:33N 50°47' E 000°59'1413.4
2015-Aug-12 02:32N 50°55' E 001°17'1212.5
2015-Aug-12 01:33N 51°03' E 001°30'1111.0
2015-Aug-12 00:33N 51°11' E 001°43'1010.4
2015-Aug-11 23:33N 51°19' E 001°53'1010.1
2015-Aug-11 22:32N 51°29' E 001°60'1212.1
2015-Aug-11 21:33N 51°21' E 002°15'  

Dump ship's entire track history